FGBT

Details ICAO FGBT (BSG)
Name BATA
Region Equatorial Guinea
Timezone Africa/Malabo (UTC+1.0)
Plans Departing 10
Arriving 12
Stats Elevation 13 ft / 4 m (AMSL)
Location 1.905468° 9.805680°
Runways 1
Magnetic Variation 1.447° W
Sunrise 2018-05-22 05:12:29 UTC / 2018-05-22 06:12:29 Local
Sunset 2018-05-22 17:25:15 UTC / 2018-05-22 18:25:15 Local
Advertisement - Login to hide

Runways

ID Width Length Bearing (true) Bearing (mag) Surface Threshold Offset Overrun Length
04 148 ft / 45 m 6,577 ft / 2,005 m 40.97° 42.42° Asphalt 0 ft / 0 m 0 ft / 0 m
22 148 ft / 45 m 6,577 ft / 2,005 m 220.97° 222.42° Asphalt 0 ft / 0 m 0 ft / 0 m

Map

Weather


0- 5 10 15 20 25 30 35+ Temperature / ° C

Clouds and Precipitation
Forecast for 2018-05-22 12:00 UTC. Updated an hour ago

Ground ~20,000 ft ~40,000 ft Winds

METAR

FGBT 221000Z 27008KT 9999 SCT010 29/25 Q1012

TAF

TAF FGBT 220500Z 2206/2306 24008KT 9999 SCT012 FEW020CB TEMPO 2206/2209 TS BECMG 2214/2216 TS BKN010 FEW020CB PROB30 TEMPO 2220/2306 4000 TSRA BKN008 FEW018CB

Frequencies

Tower 118.80 MHz TWR
Warning: Do not use this data for real-world aviation or navigation. No guarantee of current accuracy is given.